sensor_id;sensor_type;location;lat;lon;timestamp;pressure;altitude;pressure_sealevel;temperature;humidity
2339;BME280;1180;51.438;6.978;2023-02-22T00:00:39;100234.81;;;10.09;92.14
2339;BME280;1180;51.438;6.978;2023-02-22T00:03:13;100228.78;;;10.10;92.61
2339;BME280;1180;51.438;6.978;2023-02-22T00:05:43;100227.78;;;9.99;93.10
2339;BME280;1180;51.438;6.978;2023-02-22T00:08:15;100223.22;;;10.04;92.75
2339;BME280;1180;51.438;6.978;2023-02-22T00:10:41;100224.38;;;9.98;93.36
2339;BME280;1180;51.438;6.978;2023-02-22T00:13:08;100221.91;;;9.96;93.48
2339;BME280;1180;51.438;6.978;2023-02-22T00:15:34;100224.38;;;9.98;93.19
2339;BME280;1180;51.438;6.978;2023-02-22T00:18:00;100225.84;;;10.02;93.19
2339;BME280;1180;51.438;6.978;2023-02-22T00:20:26;100220.13;;;9.82;94.53
2339;BME280;1180;51.438;6.978;2023-02-22T00:22:52;100223.69;;;9.80;95.47
2339;BME280;1180;51.438;6.978;2023-02-22T00:25:22;100221.13;;;9.80;95.90
2339;BME280;1180;51.438;6.978;2023-02-22T00:27:49;100214.84;;;9.86;96.28
2339;BME280;1180;51.438;6.978;2023-02-22T00:30:21;100221.50;;;9.88;96.11
2339;BME280;1180;51.438;6.978;2023-02-22T00:32:48;100219.44;;;9.95;95.64
2339;BME280;1180;51.438;6.978;2023-02-22T00:35:19;100219.22;;;9.83;96.34
2339;BME280;1180;51.438;6.978;2023-02-22T00:37:49;100218.19;;;9.86;96.97
2339;BME280;1180;51.438;6.978;2023-02-22T00:40:18;100216.94;;;9.93;96.74
2339;BME280;1180;51.438;6.978;2023-02-22T00:42:44;100215.63;;;9.86;96.62
2339;BME280;1180;51.438;6.978;2023-02-22T00:45:11;100213.34;;;9.81;97.35
2339;BME280;1180;51.438;6.978;2023-02-22T00:47:36;100207.94;;;9.86;97.68
2339;BME280;1180;51.438;6.978;2023-02-22T00:50:02;100201.84;;;9.89;97.23
2339;BME280;1180;51.438;6.978;2023-02-22T00:52:28;100202.94;;;9.85;97.72
2339;BME280;1180;51.438;6.978;2023-02-22T00:54:54;100198.78;;;9.82;97.93
2339;BME280;1180;51.438;6.978;2023-02-22T00:57:21;100199.88;;;9.78;98.29
2339;BME280;1180;51.438;6.978;2023-02-22T00:59:46;100197.69;;;9.86;98.47
2339;BME280;1180;51.438;6.978;2023-02-22T01:02:12;100192.56;;;9.86;98.74
2339;BME280;1180;51.438;6.978;2023-02-22T01:04:38;100188.53;;;9.82;99.22
2339;BME280;1180;51.438;6.978;2023-02-22T01:07:04;100190.28;;;9.81;99.64
2339;BME280;1180;51.438;6.978;2023-02-22T01:09:29;100185.06;;;9.83;99.88
2339;BME280;1180;51.438;6.978;2023-02-22T01:11:55;100187.91;;;9.78;99.75
2339;BME280;1180;51.438;6.978;2023-02-22T01:14:22;100198.78;;;9.82;100.00
2339;BME280;1180;51.438;6.978;2023-02-22T01:16:49;100197.88;;;9.83;100.00
2339;BME280;1180;51.438;6.978;2023-02-22T01:19:15;100187.56;;;9.85;100.00
2339;BME280;1180;51.438;6.978;2023-02-22T01:21:40;100188.91;;;9.76;100.00
2339;BME280;1180;51.438;6.978;2023-02-22T01:24:06;100186.09;;;9.80;100.00
2339;BME280;1180;51.438;6.978;2023-02-22T01:26:31;100185.41;;;9.77;100.00
2339;BME280;1180;51.438;6.978;2023-02-22T01:28:57;100185.06;;;9.83;100.00
2339;BME280;1180;51.438;6.978;2023-02-22T01:31:22;100167.47;;;9.77;100.00
2339;BME280;1180;51.438;6.978;2023-02-22T01:33:48;100173.16;;;9.82;100.00
2339;BME280;1180;51.438;6.978;2023-02-22T01:36:15;100174.06;;;9.81;100.00
2339;BME280;1180;51.438;6.978;2023-02-22T01:38:40;100167.31;;;9.80;100.00
2339;BME280;1180;51.438;6.978;2023-02-22T01:41:06;100172.34;;;9.81;100.00
2339;BME280;1180;51.438;6.978;2023-02-22T01:43:33;100170.22;;;9.74;100.00
2339;BME280;1180;51.438;6.978;2023-02-22T01:46:20;100163.09;;;9.79;100.00
2339;BME280;1180;51.438;6.978;2023-02-22T01:49:03;100161.09;;;9.84;100.00
2339;BME280;1180;51.438;6.978;2023-02-22T01:51:36;100164.38;;;9.86;100.00
2339;BME280;1180;51.438;6.978;2023-02-22T01:54:08;100162.91;;;9.82;100.00
2339;BME280;1180;51.438;6.978;2023-02-22T01:56:37;100151.75;;;9.83;100.00
2339;BME280;1180;51.438;6.978;2023-02-22T01:59:07;100162.44;;;9.75;100.00
2339;BME280;1180;51.438;6.978;2023-02-22T02:01:35;100158.50;;;9.70;100.00
2339;BME280;1180;51.438;6.978;2023-02-22T02:04:05;100157.09;;;9.64;100.00
2339;BME280;1180;51.438;6.978;2023-02-22T02:06:33;100153.56;;;9.66;100.00
2339;BME280;1180;51.438;6.978;2023-02-22T02:09:07;100151.16;;;9.63;100.00
2339;BME280;1180;51.438;6.978;2023-02-22T02:11:35;100149.53;;;9.62;100.00
2339;BME280;1180;51.438;6.978;2023-02-22T02:14:06;100148.19;;;9.55;100.00
2339;BME280;1180;51.438;6.978;2023-02-22T02:16:47;100139.94;;;9.50;100.00
2339;BME280;1180;51.438;6.978;2023-02-22T02:19:38;100143.34;;;9.50;100.00
2339;BME280;1180;51.438;6.978;2023-02-22T02:34:05;100123.31;;;9.57;100.00
2339;BME280;1180;51.438;6.978;2023-02-22T02:39:28;100117.63;;;9.52;100.00
2339;BME280;1180;51.438;6.978;2023-02-22T02:41:59;100122.56;;;9.55;100.00
2339;BME280;1180;51.438;6.978;2023-02-22T02:44:45;100115.72;;;9.56;100.00
2339;BME280;1180;51.438;6.978;2023-02-22T02:47:26;100112.69;;;9.49;100.00
2339;BME280;1180;51.438;6.978;2023-02-22T02:49:59;100115.91;;;9.52;100.00
2339;BME280;1180;51.438;6.978;2023-02-22T02:52:28;100120.47;;;9.47;100.00
2339;BME280;1180;51.438;6.978;2023-02-22T02:54:56;100110.78;;;9.52;100.00
2339;BME280;1180;51.438;6.978;2023-02-22T02:57:22;100104.03;;;9.66;100.00
2339;BME280;1180;51.438;6.978;2023-02-22T02:59:49;100103.47;;;9.61;100.00
2339;BME280;1180;51.438;6.978;2023-02-22T03:15:50;100073.50;;;9.32;100.00
2339;BME280;1180;51.438;6.978;2023-02-22T03:18:24;100064.72;;;9.36;100.00
2339;BME280;1180;51.438;6.978;2023-02-22T03:23:57;100062.34;;;9.33;100.00
2339;BME280;1180;51.438;6.978;2023-02-22T03:26:30;100064.06;;;9.33;100.00
2339;BME280;1180;51.438;6.978;2023-02-22T03:28:58;100063.81;;;9.37;100.00
2339;BME280;1180;51.438;6.978;2023-02-22T03:31:33;100064.00;;;9.34;100.00
2339;BME280;1180;51.438;6.978;2023-02-22T03:34:14;100061.63;;;9.31;100.00
2339;BME280;1180;51.438;6.978;2023-02-22T03:36:50;100072.41;;;9.36;100.00
2339;BME280;1180;51.438;6.978;2023-02-22T03:39:22;100062.72;;;9.42;100.00
2339;BME280;1180;51.438;6.978;2023-02-22T03:41:57;100066.56;;;9.34;100.00
2339;BME280;1180;51.438;6.978;2023-02-22T03:44:26;100064.63;;;9.38;100.00
2339;BME280;1180;51.438;6.978;2023-02-22T03:46:54;100067.28;;;9.36;100.00
2339;BME280;1180;51.438;6.978;2023-02-22T03:49:37;100067.84;;;9.42;100.00
2339;BME280;1180;51.438;6.978;2023-02-22T03:52:05;100054.13;;;9.43;100.00
2339;BME280;1180;51.438;6.978;2023-02-22T03:54:32;100061.44;;;9.49;100.00
2339;BME280;1180;51.438;6.978;2023-02-22T03:57:10;100059.81;;;9.48;100.00
2339;BME280;1180;51.438;6.978;2023-02-22T03:59:37;100058.25;;;9.45;100.00
2339;BME280;1180;51.438;6.978;2023-02-22T04:02:02;100063.53;;;9.42;100.00
2339;BME280;1180;51.438;6.978;2023-02-22T04:04:28;100062.72;;;9.42;100.00
2339;BME280;1180;51.438;6.978;2023-02-22T04:06:53;100064.72;;;9.36;100.00
2339;BME280;1180;51.438;6.978;2023-02-22T04:09:19;100069.28;;;9.31;100.00
2339;BME280;1180;51.438;6.978;2023-02-22T04:11:45;100066.38;;;9.37;100.00
2339;BME280;1180;51.438;6.978;2023-02-22T04:14:11;100065.53;;;9.37;100.00
2339;BME280;1180;51.438;6.978;2023-02-22T04:16:36;100065.66;;;9.35;100.00
2339;BME280;1180;51.438;6.978;2023-02-22T04:19:02;100070.47;;;9.25;100.00
2339;BME280;1180;51.438;6.978;2023-02-22T04:21:27;100064.19;;;9.31;100.00
2339;BME280;1180;51.438;6.978;2023-02-22T04:23:53;100069.72;;;9.23;100.00
2339;BME280;1180;51.438;6.978;2023-02-22T04:26:19;100076.34;;;9.12;99.54
2339;BME280;1180;51.438;6.978;2023-02-22T04:28:44;100077.13;;;8.98;99.15
2339;BME280;1180;51.438;6.978;2023-02-22T04:31:09;100076.38;;;8.95;99.26
2339;BME280;1180;51.438;6.978;2023-02-22T04:33:35;100070.47;;;8.95;98.80
2339;BME280;1180;51.438;6.978;2023-02-22T04:36:00;100075.88;;;8.89;99.07
2339;BME280;1180;51.438;6.978;2023-02-22T04:38:26;100069.03;;;8.89;99.41
2339;BME280;1180;51.438;6.978;2023-02-22T04:40:52;100069.84;;;8.90;98.34
2339;BME280;1180;51.438;6.978;2023-02-22T04:43:18;100064.84;;;8.72;98.60
2339;BME280;1180;51.438;6.978;2023-02-22T04:45:43;100060.56;;;8.73;99.36
2339;BME280;1180;51.438;6.978;2023-02-22T04:48:09;100062.81;;;8.63;100.00
2339;BME280;1180;51.438;6.978;2023-02-22T04:50:34;100057.75;;;8.77;100.00
2339;BME280;1180;51.438;6.978;2023-02-22T04:53:00;100058.66;;;8.76;100.00
2339;BME280;1180;51.438;6.978;2023-02-22T04:55:25;100060.88;;;8.66;100.00
2339;BME280;1180;51.438;6.978;2023-02-22T04:57:52;100058.25;;;8.68;100.00
2339;BME280;1180;51.438;6.978;2023-02-22T05:00:18;100056.78;;;8.64;100.00
2339;BME280;1180;51.438;6.978;2023-02-22T05:02:46;100046.28;;;8.69;99.13
2339;BME280;1180;51.438;6.978;2023-02-22T05:05:17;100039.44;;;8.53;99.45
2339;BME280;1180;51.438;6.978;2023-02-22T05:07:42;100031.69;;;8.55;99.20
2339;BME280;1180;51.438;6.978;2023-02-22T05:10:09;100026.84;;;8.50;99.03
2339;BME280;1180;51.438;6.978;2023-02-22T05:12:35;100028.47;;;8.51;98.99
2339;BME280;1180;51.438;6.978;2023-02-22T05:15:00;100019.38;;;8.45;99.16
2339;BME280;1180;51.438;6.978;2023-02-22T05:17:26;100021.09;;;8.45;98.99
2339;BME280;1180;51.438;6.978;2023-02-22T05:19:51;100018.41;;;8.48;98.19
2339;BME280;1180;51.438;6.978;2023-02-22T05:22:17;100016.50;;;8.51;98.41
2339;BME280;1180;51.438;6.978;2023-02-22T05:24:42;100011.53;;;8.48;97.91
2339;BME280;1180;51.438;6.978;2023-02-22T05:27:08;100008.75;;;8.53;97.89
2339;BME280;1180;51.438;6.978;2023-02-22T05:29:33;100013.03;;;8.52;97.51
2339;BME280;1180;51.438;6.978;2023-02-22T05:31:59;100008.41;;;8.43;97.53
2339;BME280;1180;51.438;6.978;2023-02-22T05:34:26;100001.72;;;8.41;98.00
2339;BME280;1180;51.438;6.978;2023-02-22T05:36:52;100000.31;;;8.35;97.74
2339;BME280;1180;51.438;6.978;2023-02-22T05:39:17;100005.34;;;8.36;97.87
2339;BME280;1180;51.438;6.978;2023-02-22T05:41:42;100001.47;;;8.29;97.68
2339;BME280;1180;51.438;6.978;2023-02-22T05:44:07;99990.69;;;8.24;97.40
2339;BME280;1180;51.438;6.978;2023-02-22T05:46:33;99995.13;;;8.20;97.14
2339;BME280;1180;51.438;6.978;2023-02-22T05:48:58;99995.13;;;8.20;96.77
2339;BME280;1180;51.438;6.978;2023-02-22T05:51:23;99989.94;;;8.22;95.77
2339;BME280;1180;51.438;6.978;2023-02-22T05:53:49;99995.03;;;8.06;95.73
2339;BME280;1180;51.438;6.978;2023-02-22T05:56:21;99985.44;;;7.93;96.52
2339;BME280;1180;51.438;6.978;2023-02-22T05:58:46;99987.94;;;7.95;96.69
2339;BME280;1180;51.438;6.978;2023-02-22T06:01:11;99991.63;;;7.89;96.40
2339;BME280;1180;51.438;6.978;2023-02-22T06:03:37;99995.97;;;7.71;98.51
2339;BME280;1180;51.438;6.978;2023-02-22T06:06:03;99995.41;;;7.82;98.32
2339;BME280;1180;51.438;6.978;2023-02-22T06:08:29;99994.19;;;7.89;98.04
2339;BME280;1180;51.438;6.978;2023-02-22T06:10:54;99992.38;;;7.91;98.15
2339;BME280;1180;51.438;6.978;2023-02-22T06:13:20;99997.59;;;8.06;97.80
2339;BME280;1180;51.438;6.978;2023-02-22T06:15:45;99993.38;;;8.05;97.66
2339;BME280;1180;51.438;6.978;2023-02-22T06:18:10;99993.38;;;8.05;97.49
2339;BME280;1180;51.438;6.978;2023-02-22T06:20:36;99992.81;;;8.00;98.26
2339;BME280;1180;51.438;6.978;2023-02-22T06:23:01;99992.81;;;8.00;98.20
2339;BME280;1180;51.438;6.978;2023-02-22T06:25:29;99989.34;;;8.01;97.91
2339;BME280;1180;51.438;6.978;2023-02-22T06:27:59;99994.53;;;7.99;99.42
2339;BME280;1180;51.438;6.978;2023-02-22T06:30:26;99990.56;;;7.93;98.84
2339;BME280;1180;51.438;6.978;2023-02-22T06:32:52;99995.94;;;8.05;98.80
2339;BME280;1180;51.438;6.978;2023-02-22T06:35:17;99993.47;;;8.03;98.12
2339;BME280;1180;51.438;6.978;2023-02-22T06:37:43;99991.66;;;8.05;98.45
2339;BME280;1180;51.438;6.978;2023-02-22T06:40:09;99996.34;;;7.97;99.47
2339;BME280;1180;51.438;6.978;2023-02-22T06:42:35;99993.56;;;8.02;98.86
2339;BME280;1180;51.438;6.978;2023-02-22T06:45:01;99989.09;;;8.05;98.45
2339;BME280;1180;51.438;6.978;2023-02-22T06:47:26;99985.06;;;8.01;98.06
2339;BME280;1180;51.438;6.978;2023-02-22T06:49:53;99984.06;;;8.04;98.97
2339;BME280;1180;51.438;6.978;2023-02-22T06:52:19;99991.91;;;8.01;99.38
2339;BME280;1180;51.438;6.978;2023-02-22T06:54:45;99984.06;;;8.04;98.97
2339;BME280;1180;51.438;6.978;2023-02-22T06:57:10;99981.59;;;8.02;98.92
2339;BME280;1180;51.438;6.978;2023-02-22T06:59:35;99988.91;;;8.08;98.89
2339;BME280;1180;51.438;6.978;2023-02-22T07:02:01;99987.78;;;8.14;98.11
2339;BME280;1180;51.438;6.978;2023-02-22T07:04:28;99979.94;;;8.01;98.33
2339;BME280;1180;51.438;6.978;2023-02-22T07:06:53;99984.81;;;8.06;98.61
2339;BME280;1180;51.438;6.978;2023-02-22T07:09:18;99987.78;;;7.98;98.09
2339;BME280;1180;51.438;6.978;2023-02-22T07:11:44;99985.56;;;8.08;98.04
2339;BME280;1180;51.438;6.978;2023-02-22T07:14:09;99990.56;;;8.09;98.13
2339;BME280;1180;51.438;6.978;2023-02-22T07:16:35;99986.97;;;8.14;97.79
2339;BME280;1180;51.438;6.978;2023-02-22T07:19:00;99985.31;;;8.13;98.30
2339;BME280;1180;51.438;6.978;2023-02-22T07:21:27;99983.50;;;8.15;98.65
2339;BME280;1180;51.438;6.978;2023-02-22T07:23:54;99979.22;;;8.31;97.96
2339;BME280;1180;51.438;6.978;2023-02-22T07:26:21;99981.19;;;8.26;97.43
2339;BME280;1180;51.438;6.978;2023-02-22T07:28:47;99988.13;;;8.24;97.95
2339;BME280;1180;51.438;6.978;2023-02-22T07:31:12;99984.56;;;8.27;98.51
2339;BME280;1180;51.438;6.978;2023-02-22T07:33:37;99979.72;;;8.22;98.89
2339;BME280;1180;51.438;6.978;2023-02-22T07:36:03;99974.75;;;8.35;99.00
2339;BME280;1180;51.438;6.978;2023-02-22T07:38:30;99975.09;;;8.29;99.20
2339;BME280;1180;51.438;6.978;2023-02-22T07:40:55;99979.03;;;8.34;99.26
2339;BME280;1180;51.438;6.978;2023-02-22T07:43:23;99976.06;;;8.42;99.22
2339;BME280;1180;51.438;6.978;2023-02-22T07:45:51;99964.63;;;8.49;98.94
2339;BME280;1180;51.438;6.978;2023-02-22T07:48:19;99965.75;;;8.60;98.94
2339;BME280;1180;51.438;6.978;2023-02-22T07:50:45;99967.84;;;8.53;99.13
2339;BME280;1180;51.438;6.978;2023-02-22T07:53:17;99966.41;;;8.63;99.88
2339;BME280;1180;51.438;6.978;2023-02-22T07:55:43;99965.72;;;8.76;99.21
2339;BME280;1180;51.438;6.978;2023-02-22T07:58:13;99964.19;;;8.88;98.75
2339;BME280;1180;51.438;6.978;2023-02-22T08:00:40;99960.41;;;8.95;98.44
2339;BME280;1180;51.438;6.978;2023-02-22T08:03:10;99964.50;;;8.98;98.74
2339;BME280;1180;51.438;6.978;2023-02-22T08:05:37;99961.50;;;9.05;98.49
2339;BME280;1180;51.438;6.978;2023-02-22T08:08:04;99967.00;;;8.99;99.06
2339;BME280;1180;51.438;6.978;2023-02-22T08:10:30;99961.03;;;8.99;99.75
2339;BME280;1180;51.438;6.978;2023-02-22T08:12:55;99959.59;;;9.09;100.00
2339;BME280;1180;51.438;6.978;2023-02-22T08:17:53;99961.09;;;9.13;100.00
2339;BME280;1180;51.438;6.978;2023-02-22T08:20:19;99949.09;;;9.14;100.00
2339;BME280;1180;51.438;6.978;2023-02-22T08:22:45;99952.13;;;9.35;100.00
2339;BME280;1180;51.438;6.978;2023-02-22T08:25:12;99949.13;;;9.43;100.00
2339;BME280;1180;51.438;6.978;2023-02-22T08:27:40;99950.84;;;9.42;100.00
2339;BME280;1180;51.438;6.978;2023-02-22T08:30:06;99950.22;;;9.53;100.00
2339;BME280;1180;51.438;6.978;2023-02-22T08:32:33;99951.59;;;9.59;100.00
2339;BME280;1180;51.438;6.978;2023-02-22T08:35:00;99952.50;;;9.72;100.00
2339;BME280;1180;51.438;6.978;2023-02-22T08:37:26;99950.72;;;9.87;100.00
2339;BME280;1180;51.438;6.978;2023-02-22T08:39:52;99944.88;;;9.85;100.00
2339;BME280;1180;51.438;6.978;2023-02-22T08:42:17;99953.94;;;9.91;100.00
2339;BME280;1180;51.438;6.978;2023-02-22T08:44:43;99949.47;;;9.94;100.00
2339;BME280;1180;51.438;6.978;2023-02-22T08:47:08;99949.63;;;10.06;100.00
2339;BME280;1180;51.438;6.978;2023-02-22T08:49:33;99945.03;;;10.11;100.00
2339;BME280;1180;51.438;6.978;2023-02-22T08:51:59;99944.09;;;10.12;100.00
2339;BME280;1180;51.438;6.978;2023-02-22T08:54:24;99935.22;;;10.18;100.00
2339;BME280;1180;51.438;6.978;2023-02-22T08:56:50;99927.84;;;10.26;100.00
2339;BME280;1180;51.438;6.978;2023-02-22T08:59:16;99937.88;;;10.44;100.00
2339;BME280;1180;51.438;6.978;2023-02-22T09:01:41;99932.13;;;10.40;100.00
2339;BME280;1180;51.438;6.978;2023-02-22T09:04:07;99930.53;;;10.37;100.00
2339;BME280;1180;51.438;6.978;2023-02-22T09:06:32;99929.69;;;10.51;100.00
2339;BME280;1180;51.438;6.978;2023-02-22T09:08:58;99934.25;;;10.61;99.51
2339;BME280;1180;51.438;6.978;2023-02-22T09:11:23;99933.22;;;10.63;98.96
2339;BME280;1180;51.438;6.978;2023-02-22T09:13:48;99930.16;;;10.71;98.96
2339;BME280;1180;51.438;6.978;2023-02-22T09:16:14;99936.13;;;10.84;98.79
2339;BME280;1180;51.438;6.978;2023-02-22T09:18:40;99926.00;;;10.96;98.49
2339;BME280;1180;51.438;6.978;2023-02-22T09:21:05;99927.22;;;11.03;97.48
2339;BME280;1180;51.438;6.978;2023-02-22T09:23:30;99921.25;;;11.16;97.28
2339;BME280;1180;51.438;6.978;2023-02-22T09:25:56;99927.63;;;11.23;95.66
2339;BME280;1180;51.438;6.978;2023-02-22T09:28:24;99925.38;;;11.31;95.79
2339;BME280;1180;51.438;6.978;2023-02-22T09:30:50;99923.41;;;11.48;95.29
2339;BME280;1180;51.438;6.978;2023-02-22T09:33:17;99923.69;;;11.56;94.25
2339;BME280;1180;51.438;6.978;2023-02-22T09:35:45;99914.66;;;11.63;93.51
2339;BME280;1180;51.438;6.978;2023-02-22T09:38:12;99917.59;;;11.70;93.35
2339;BME280;1180;51.438;6.978;2023-02-22T09:40:42;99910.06;;;11.80;92.88
2339;BME280;1180;51.438;6.978;2023-02-22T09:46:06;99907.97;;;11.98;91.97
2339;BME280;1180;51.438;6.978;2023-02-22T09:51:16;99918.00;;;12.14;90.73
2339;BME280;1180;51.438;6.978;2023-02-22T09:53:45;99920.81;;;12.11;90.53
2339;BME280;1180;51.438;6.978;2023-02-22T09:56:15;99922.63;;;12.22;90.98
2339;BME280;1180;51.438;6.978;2023-02-22T09:58:47;99917.16;;;12.26;89.36
2339;BME280;1180;51.438;6.978;2023-02-22T10:01:33;99917.69;;;12.19;88.88
2339;BME280;1180;51.438;6.978;2023-02-22T10:09:40;99910.19;;;12.51;89.75
2339;BME280;1180;51.438;6.978;2023-02-22T10:12:18;99914.81;;;12.59;90.00
2339;BME280;1180;51.438;6.978;2023-02-22T10:21:11;99904.59;;;13.05;89.15
2339;BME280;1180;51.438;6.978;2023-02-22T10:23:48;99906.72;;;13.11;88.68
2339;BME280;1180;51.438;6.978;2023-02-22T10:26:24;99899.31;;;13.18;87.85
2339;BME280;1180;51.438;6.978;2023-02-22T10:29:03;99896.28;;;13.24;86.46
2339;BME280;1180;51.438;6.978;2023-02-22T10:31:33;99899.09;;;13.32;86.29
2339;BME280;1180;51.438;6.978;2023-02-22T10:34:11;99902.84;;;13.39;83.41
2339;BME280;1180;51.438;6.978;2023-02-22T10:36:37;99902.88;;;13.51;82.28
2339;BME280;1180;51.438;6.978;2023-02-22T10:39:33;99892.91;;;13.57;79.57
2339;BME280;1180;51.438;6.978;2023-02-22T10:42:02;99895.69;;;13.66;78.81
2339;BME280;1180;51.438;6.978;2023-02-22T10:44:37;99886.78;;;13.70;77.26
2339;BME280;1180;51.438;6.978;2023-02-22T10:47:09;99883.63;;;13.66;76.39
2339;BME280;1180;51.438;6.978;2023-02-22T10:49:50;99885.00;;;13.82;75.79
2339;BME280;1180;51.438;6.978;2023-02-22T10:52:25;99884.03;;;13.94;75.63
2339;BME280;1180;51.438;6.978;2023-02-22T10:54:53;99868.06;;;14.00;74.07
2339;BME280;1180;51.438;6.978;2023-02-22T10:57:31;99873.47;;;13.97;73.29
2339;BME280;1180;51.438;6.978;2023-02-22T11:00:12;99859.53;;;14.21;72.84
2339;BME280;1180;51.438;6.978;2023-02-22T11:02:38;99863.78;;;14.43;72.15
2339;BME280;1180;51.438;6.978;2023-02-22T11:05:26;99863.03;;;14.53;70.80
2339;BME280;1180;51.438;6.978;2023-02-22T11:08:13;99857.28;;;14.70;70.05
2339;BME280;1180;51.438;6.978;2023-02-22T11:10:39;99854.25;;;14.86;69.51
2339;BME280;1180;51.438;6.978;2023-02-22T11:13:29;99852.97;;;15.02;69.26
2339;BME280;1180;51.438;6.978;2023-02-22T11:16:01;99851.06;;;15.04;68.84
2339;BME280;1180;51.438;6.978;2023-02-22T11:18:41;99842.72;;;14.91;67.39
2339;BME280;1180;51.438;6.978;2023-02-22T11:21:09;99834.28;;;14.88;66.92
2339;BME280;1180;51.438;6.978;2023-02-22T11:23:37;99842.22;;;14.97;66.44
2339;BME280;1180;51.438;6.978;2023-02-22T11:26:10;99843.78;;;15.19;66.52
2339;BME280;1180;51.438;6.978;2023-02-22T11:28:42;99840.13;;;15.31;65.75
2339;BME280;1180;51.438;6.978;2023-02-22T11:31:18;99836.63;;;15.42;64.49
2339;BME280;1180;51.438;6.978;2023-02-22T11:33:54;99830.28;;;15.56;64.00
2339;BME280;1180;51.438;6.978;2023-02-22T11:36:39;99830.16;;;15.58;63.36
2339;BME280;1180;51.438;6.978;2023-02-22T11:39:29;99829.59;;;15.54;63.72
2339;BME280;1180;51.438;6.978;2023-02-22T11:42:17;99827.97;;;15.73;61.83
2339;BME280;1180;51.438;6.978;2023-02-22T11:44:44;99818.19;;;15.86;61.58
2339;BME280;1180;51.438;6.978;2023-02-22T11:47:11;99825.41;;;15.93;61.52
2339;BME280;1180;51.438;6.978;2023-02-22T11:49:38;99818.34;;;16.05;60.19
2339;BME280;1180;51.438;6.978;2023-02-22T11:52:29;99816.72;;;16.03;61.22
2339;BME280;1180;51.438;6.978;2023-02-22T11:55:23;99816.16;;;16.10;61.57
2339;BME280;1180;51.438;6.978;2023-02-22T12:01:04;99810.84;;;16.11;59.79
2339;BME280;1180;51.438;6.978;2023-02-22T12:04:03;99805.38;;;16.24;60.34
2339;BME280;1180;51.438;6.978;2023-02-22T12:09:43;99806.59;;;16.30;61.08
2339;BME280;1180;51.438;6.978;2023-02-22T12:17:42;99803.19;;;16.29;60.53
2339;BME280;1180;51.438;6.978;2023-02-22T12:20:21;99803.69;;;16.43;59.96
2339;BME280;1180;51.438;6.978;2023-02-22T12:23:29;99796.72;;;16.53;60.18
2339;BME280;1180;51.438;6.978;2023-02-22T12:26:07;99797.38;;;16.55;60.01
2339;BME280;1180;51.438;6.978;2023-02-22T12:28:50;99800.50;;;16.69;60.48
2339;BME280;1180;51.438;6.978;2023-02-22T12:36:47;99792.63;;;16.88;57.90
2339;BME280;1180;51.438;6.978;2023-02-22T12:39:48;99797.28;;;16.85;57.58
2339;BME280;1180;51.438;6.978;2023-02-22T12:42:20;99803.81;;;16.89;57.00
2339;BME280;1180;51.438;6.978;2023-02-22T12:44:53;99799.00;;;16.94;57.94
2339;BME280;1180;51.438;6.978;2023-02-22T12:47:22;99801.84;;;17.11;57.92
2339;BME280;1180;51.438;6.978;2023-02-22T12:52:55;99786.66;;;17.16;57.31
2339;BME280;1180;51.438;6.978;2023-02-22T12:55:39;99798.03;;;17.05;58.88
2339;BME280;1180;51.438;6.978;2023-02-22T13:00:45;99791.41;;;17.21;58.13
2339;BME280;1180;51.438;6.978;2023-02-22T13:06:13;99797.69;;;17.18;57.74
2339;BME280;1180;51.438;6.978;2023-02-22T13:11:37;99804.28;;;17.12;55.61
2339;BME280;1180;51.438;6.978;2023-02-22T13:14:30;99794.72;;;17.13;55.66
2339;BME280;1180;51.438;6.978;2023-02-22T13:17:12;99794.94;;;17.20;56.36
2339;BME280;1180;51.438;6.978;2023-02-22T13:22:47;99792.84;;;17.33;56.19
2339;BME280;1180;51.438;6.978;2023-02-22T13:27:58;99789.66;;;17.39;56.34
2339;BME280;1180;51.438;6.978;2023-02-22T13:30:36;99782.00;;;17.38;55.74
2339;BME280;1180;51.438;6.978;2023-02-22T13:36:17;99790.53;;;17.30;56.92
2339;BME280;1180;51.438;6.978;2023-02-22T13:47:24;99784.69;;;17.46;54.46
2339;BME280;1180;51.438;6.978;2023-02-22T13:50:47;99779.72;;;17.53;54.24
2339;BME280;1180;51.438;6.978;2023-02-22T13:52:47;99783.88;;;17.45;53.83
2339;BME280;1180;51.438;6.978;2023-02-22T13:55:21;99783.66;;;17.57;53.06
2339;BME280;1180;51.438;6.978;2023-02-22T13:58:02;99779.72;;;17.53;53.68
2339;BME280;1180;51.438;6.978;2023-02-22T14:00:47;99780.00;;;17.50;54.95
2339;BME280;1180;51.438;6.978;2023-02-22T14:13:08;99784.09;;;17.52;55.86
2339;BME280;1180;51.438;6.978;2023-02-22T14:15:34;99781.44;;;17.62;55.50
2339;BME280;1180;51.438;6.978;2023-02-22T14:18:03;99781.28;;;17.64;55.77
2339;BME280;1180;51.438;6.978;2023-02-22T14:20:35;99781.16;;;17.65;53.59
2339;BME280;1180;51.438;6.978;2023-02-22T14:26:36;99773.19;;;17.85;54.03
2339;BME280;1180;51.438;6.978;2023-02-22T14:32:11;99776.81;;;17.92;53.44
2339;BME280;1180;51.438;6.978;2023-02-22T14:37:17;99778.47;;;17.93;53.41
2339;BME280;1180;51.438;6.978;2023-02-22T14:39:49;99781.25;;;18.00;52.90
2339;BME280;1180;51.438;6.978;2023-02-22T14:44:59;99775.56;;;17.96;52.99
2339;BME280;1180;51.438;6.978;2023-02-22T14:47:37;99774.97;;;17.84;54.98
2339;BME280;1180;51.438;6.978;2023-02-22T14:50:17;99772.22;;;17.86;55.23
2339;BME280;1180;51.438;6.978;2023-02-22T14:55:41;99773.38;;;17.65;56.04
2339;BME280;1180;51.438;6.978;2023-02-22T14:58:13;99780.13;;;17.58;58.23
2339;BME280;1180;51.438;6.978;2023-02-22T15:00:45;99770.16;;;17.71;64.22
2339;BME280;1180;51.438;6.978;2023-02-22T15:03:33;99772.81;;;17.80;56.75
2339;BME280;1180;51.438;6.978;2023-02-22T15:08:43;99767.03;;;17.68;57.27
2339;BME280;1180;51.438;6.978;2023-02-22T15:11:32;99774.47;;;17.63;57.38
2339;BME280;1180;51.438;6.978;2023-02-22T15:13:59;99784.34;;;17.59;57.59
2339;BME280;1180;51.438;6.978;2023-02-22T15:16:28;99778.97;;;17.60;58.38
2339;BME280;1180;51.438;6.978;2023-02-22T15:18:58;99785.00;;;17.61;58.88
2339;BME280;1180;51.438;6.978;2023-02-22T15:21:26;99783.38;;;17.60;59.71
2339;BME280;1180;51.438;6.978;2023-02-22T15:24:00;99775.28;;;17.63;59.76
2339;BME280;1180;51.438;6.978;2023-02-22T15:26:37;99776.75;;;17.66;59.81
2339;BME280;1180;51.438;6.978;2023-02-22T15:29:24;99791.22;;;17.68;59.57
2339;BME280;1180;51.438;6.978;2023-02-22T15:31:51;99788.09;;;17.65;60.11
2339;BME280;1180;51.438;6.978;2023-02-22T15:34:26;99791.16;;;17.60;60.58
2339;BME280;1180;51.438;6.978;2023-02-22T15:36:55;99785.97;;;17.60;60.02
2339;BME280;1180;51.438;6.978;2023-02-22T15:39:31;99787.44;;;17.63;60.57
2339;BME280;1180;51.438;6.978;2023-02-22T15:42:13;99788.09;;;17.65;60.46